createdAt,value
2023-04-15T00:00:40.350Z,31.24
2023-04-15T00:03:41.511Z,30.85
2023-04-15T00:06:42.365Z,30.40
2023-04-15T00:09:43.354Z,29.91
2023-04-15T00:12:37.386Z,30.23
2023-04-15T00:15:38.361Z,30.53
2023-04-15T00:18:39.383Z,30.17
2023-04-15T00:21:40.350Z,30.39
2023-04-15T00:24:41.376Z,31.05
2023-04-15T00:27:35.359Z,30.59
2023-04-15T00:30:36.503Z,31.31
2023-04-15T00:33:38.357Z,31.04
2023-04-15T00:36:40.352Z,31.14
2023-04-15T00:39:41.365Z,30.91
2023-04-15T00:42:42.371Z,31.04
2023-04-15T00:45:43.460Z,30.88
2023-04-15T00:48:45.352Z,31.19
2023-04-15T00:51:46.373Z,30.18
2023-04-15T00:54:47.387Z,31.17
2023-04-15T00:58:06.508Z,30.93
2023-04-15T01:00:56.616Z,30.73
2023-04-15T01:03:57.439Z,31.23
2023-04-15T01:06:58.401Z,31.19
2023-04-15T01:09:59.325Z,31.31
2023-04-15T01:13:00.362Z,31.24
2023-04-15T01:16:01.336Z,30.74
2023-04-15T01:19:02.628Z,31.11
2023-04-15T01:22:03.336Z,31.24
2023-04-15T01:25:13.377Z,31.25
2023-04-15T01:28:14.313Z,31.59
2023-04-15T01:31:22.539Z,31.04
2023-04-15T01:34:42.337Z,31.58
2023-04-15T01:38:03.394Z,31.51
2023-04-15T01:41:06.314Z,31.46
2023-04-15T01:44:08.417Z,31.25
2023-04-15T01:47:10.316Z,30.82
2023-04-15T01:50:12.362Z,30.92
2023-04-15T01:53:14.341Z,30.44
2023-04-15T01:56:16.979Z,30.33
2023-04-15T01:59:18.335Z,30.91
2023-04-15T02:02:20.582Z,30.79
2023-04-15T02:05:24.331Z,30.63
2023-04-15T02:08:26.333Z,30.29
2023-04-15T02:11:28.344Z,31.04
2023-04-15T02:14:32.386Z,31.14
2023-04-15T02:17:34.361Z,30.83
2023-04-15T02:20:37.359Z,30.64
2023-04-15T02:23:39.337Z,30.61
2023-04-15T02:26:41.355Z,30.14
2023-04-15T02:30:01.762Z,30.30
2023-04-15T02:32:51.396Z,31.00
2023-04-15T02:35:53.347Z,31.24
2023-04-15T02:38:56.368Z,30.74
2023-04-15T02:41:59.356Z,30.54
2023-04-15T02:45:01.362Z,30.71
2023-04-15T02:48:03.314Z,30.16
2023-04-15T02:51:05.445Z,30.39
2023-04-15T02:54:08.531Z,29.15
2023-04-15T02:57:12.370Z,29.17
2023-04-15T03:00:16.319Z,30.51
2023-04-15T03:03:19.637Z,30.19
2023-04-15T03:06:22.304Z,29.97
2023-04-15T03:09:24.367Z,30.35
2023-04-15T03:12:27.317Z,30.08
2023-04-15T03:15:29.429Z,30.25
2023-04-15T03:18:31.366Z,31.07
2023-04-15T03:21:33.366Z,30.37
2023-04-15T03:24:36.322Z,30.36
2023-04-15T03:27:39.369Z,30.52
2023-04-15T03:30:41.314Z,30.42
2023-04-15T03:33:43.374Z,30.68
2023-04-15T03:36:45.317Z,30.47
2023-04-15T03:39:47.350Z,29.67
2023-04-15T03:42:49.328Z,30.03
2023-04-15T03:45:52.387Z,30.17
2023-04-15T03:48:54.326Z,30.29
2023-04-15T03:51:56.370Z,29.69
2023-04-15T03:54:58.435Z,30.42
2023-04-15T03:58:00.356Z,30.23
2023-04-15T04:01:02.325Z,30.34
2023-04-15T04:04:04.724Z,30.04
2023-04-15T04:07:06.316Z,29.97
2023-04-15T04:10:08.359Z,29.63
2023-04-15T04:13:10.347Z,30.15
2023-04-15T04:16:12.467Z,30.26
2023-04-15T04:19:14.292Z,30.08
2023-04-15T04:22:16.364Z,30.50
2023-04-15T04:25:18.326Z,30.21
2023-04-15T04:28:47.343Z,30.03
2023-04-15T04:31:49.355Z,30.78
2023-04-15T04:34:51.352Z,30.50
2023-04-15T04:37:53.308Z,30.51
2023-04-15T04:40:55.354Z,29.89
2023-04-15T04:43:57.290Z,30.52
2023-04-15T04:46:59.348Z,30.40
2023-04-15T04:50:01.297Z,29.86
2023-04-15T04:53:03.345Z,29.58
2023-04-15T04:56:05.292Z,30.36
2023-04-15T04:59:07.348Z,30.08
2023-04-15T05:02:10.925Z,29.41
2023-04-15T05:05:12.517Z,30.18
2023-04-15T05:08:14.303Z,30.10
2023-04-15T05:11:16.336Z,29.99
2023-04-15T05:14:18.310Z,29.11
2023-04-15T05:17:20.363Z,29.59
2023-04-15T05:20:22.340Z,29.79
2023-04-15T05:23:49.351Z,30.01
2023-04-15T05:26:51.305Z,29.99
2023-04-15T05:29:53.349Z,29.86
2023-04-15T05:32:55.323Z,30.19
2023-04-15T05:35:57.351Z,30.05
2023-04-15T05:38:59.654Z,30.17
2023-04-15T05:42:01.388Z,30.61
2023-04-15T05:45:03.314Z,31.08
2023-04-15T05:48:07.342Z,30.55
2023-04-15T05:51:09.307Z,30.20
2023-04-15T05:54:11.346Z,30.42
2023-04-15T05:57:13.307Z,30.96
2023-04-15T06:00:15.328Z,30.58
2023-04-15T06:03:18.408Z,31.26
2023-04-15T06:06:20.634Z,30.86
2023-04-15T06:09:24.284Z,31.32
2023-04-15T06:12:26.332Z,30.96
2023-04-15T06:15:28.306Z,30.77
2023-04-15T06:18:30.352Z,30.62
2023-04-15T06:21:38.306Z,30.71
2023-04-15T06:24:40.346Z,30.88
2023-04-15T06:27:42.293Z,30.24
2023-04-15T06:30:45.385Z,30.34
2023-04-15T06:33:47.280Z,31.04
2023-04-15T06:36:50.420Z,30.93
2023-04-15T06:40:10.522Z,30.68
2023-04-15T06:42:59.333Z,30.08
2023-04-15T06:46:01.429Z,30.13
2023-04-15T06:49:03.548Z,29.96
2023-04-15T06:52:05.346Z,29.55
2023-04-15T06:55:07.325Z,29.83
2023-04-15T06:58:09.316Z,29.63
2023-04-15T07:01:11.335Z,30.15
2023-04-15T07:04:13.342Z,30.61
2023-04-15T07:07:15.549Z,30.67
2023-04-15T07:10:18.297Z,30.67
2023-04-15T07:13:20.327Z,31.38
2023-04-15T07:16:22.305Z,31.10
2023-04-15T07:19:24.333Z,31.02
2023-04-15T07:22:26.321Z,30.92
2023-04-15T07:25:28.332Z,30.55
2023-04-15T07:28:30.305Z,30.90
2023-04-15T07:31:32.472Z,30.75
2023-04-15T07:34:34.265Z,30.50
2023-04-15T07:37:36.327Z,30.33
2023-04-15T07:40:38.323Z,30.76
2023-04-15T07:43:40.320Z,30.77
2023-04-15T07:46:45.584Z,30.97
2023-04-15T07:49:47.342Z,30.75
2023-04-15T07:52:49.299Z,30.25
2023-04-15T07:55:51.333Z,30.30
2023-04-15T07:58:53.325Z,30.72
2023-04-15T08:01:55.378Z,30.53
2023-04-15T08:04:57.359Z,30.74
2023-04-15T08:07:59.455Z,30.66
2023-04-15T08:11:02.312Z,30.62
2023-04-15T08:14:04.320Z,30.27
2023-04-15T08:17:24.477Z,30.48
2023-04-15T08:20:13.303Z,30.90
2023-04-15T08:23:15.269Z,31.02
2023-04-15T08:26:17.302Z,30.80
2023-04-15T08:29:19.264Z,30.85
2023-04-15T08:32:21.335Z,30.71
2023-04-15T08:35:23.279Z,30.53
2023-04-15T08:38:25.301Z,30.58
2023-04-15T08:41:37.284Z,30.74
2023-04-15T08:44:40.290Z,30.66
2023-04-15T08:47:43.334Z,29.92
2023-04-15T08:50:46.309Z,30.72
2023-04-15T08:53:48.286Z,30.52
2023-04-15T08:56:50.331Z,31.07
2023-04-15T09:00:02.973Z,30.24
2023-04-15T09:03:05.358Z,30.33
2023-04-15T09:06:07.308Z,30.47
2023-04-15T09:09:09.367Z,30.91
2023-04-15T09:12:11.272Z,30.71
2023-04-15T09:15:18.302Z,30.57
2023-04-15T09:18:23.236Z,30.36
2023-04-15T09:21:30.314Z,30.17
2023-04-15T09:24:32.287Z,31.02
2023-04-15T09:27:34.312Z,30.56
2023-04-15T09:30:36.293Z,29.96
2023-04-15T09:33:38.304Z,30.15
2023-04-15T09:36:40.257Z,29.69
2023-04-15T09:39:42.319Z,29.76
2023-04-15T09:42:44.427Z,30.17
2023-04-15T09:45:46.330Z,30.07
2023-04-15T09:48:48.286Z,30.58
2023-04-15T09:52:03.944Z,30.42
2023-04-15T09:55:08.269Z,30.23
2023-04-15T09:58:10.319Z,30.06
2023-04-15T10:01:14.296Z,30.31
2023-04-15T10:04:19.452Z,30.84
2023-04-15T10:07:27.260Z,30.30
2023-04-15T10:10:35.339Z,30.58
2023-04-15T10:13:44.265Z,30.31
2023-04-15T10:16:46.287Z,29.70
2023-04-15T10:19:50.310Z,29.80
2023-04-15T10:22:52.295Z,30.12
2023-04-15T10:25:54.304Z,29.54
2023-04-15T10:28:57.279Z,29.89
2023-04-15T10:32:01.279Z,29.15
2023-04-15T10:35:05.295Z,29.41
2023-04-15T10:38:07.245Z,29.31
2023-04-15T10:41:25.308Z,29.50
2023-04-15T10:44:27.259Z,29.73
2023-04-15T10:47:30.368Z,29.37
2023-04-15T10:50:32.280Z,28.86
2023-04-15T10:53:40.284Z,28.86
2023-04-15T10:56:43.292Z,28.59
2023-04-15T10:59:45.314Z,29.06
2023-04-15T11:02:56.338Z,29.07
2023-04-15T11:06:05.325Z,29.04
2023-04-15T11:09:12.235Z,29.37
2023-04-15T11:12:23.343Z,29.58
2023-04-15T11:15:47.270Z,29.95
2023-04-15T11:18:49.381Z,29.71
2023-04-15T11:21:51.276Z,29.93
2023-04-15T11:25:02.313Z,29.90
2023-04-15T11:28:06.244Z,31.20
2023-04-15T11:31:08.295Z,31.20
2023-04-15T11:34:11.246Z,31.15
2023-04-15T11:37:13.282Z,30.34
2023-04-15T11:40:16.229Z,30.83
2023-04-15T11:43:28.291Z,29.91
2023-04-15T11:46:30.223Z,30.15
2023-04-15T11:49:48.529Z,29.79
2023-04-15T11:52:49.240Z,29.52
2023-04-15T11:55:55.290Z,29.39
2023-04-15T11:58:57.358Z,30.15
2023-04-15T12:01:59.346Z,29.99
2023-04-15T12:05:00.300Z,29.66
2023-04-15T12:08:13.280Z,30.42
2023-04-15T12:11:14.243Z,30.18
2023-04-15T12:14:21.421Z,30.04
2023-04-15T12:17:24.273Z,30.04
2023-04-15T12:20:25.274Z,31.01
2023-04-15T12:23:26.237Z,30.95
2023-04-15T12:26:27.267Z,31.04
2023-04-15T12:29:28.297Z,30.60
2023-04-15T12:32:30.290Z,30.88
2023-04-15T12:35:31.258Z,30.48
2023-04-15T12:38:34.019Z,30.00
2023-04-15T12:41:35.299Z,30.54
2023-04-15T12:44:37.297Z,30.55
2023-04-15T12:47:38.297Z,30.53
2023-04-15T12:50:39.281Z,30.79
2023-04-15T12:53:40.230Z,30.49
2023-04-15T12:56:41.305Z,30.16
2023-04-15T12:59:42.232Z,29.99
2023-04-15T13:02:43.469Z,30.23
2023-04-15T13:05:46.233Z,30.07
2023-04-15T13:08:57.318Z,30.95
2023-04-15T13:11:59.213Z,31.36
2023-04-15T13:15:00.469Z,30.69
2023-04-15T13:18:01.314Z,30.93
2023-04-15T13:21:05.162Z,30.40
2023-04-15T13:24:06.382Z,30.33
2023-04-15T13:27:07.556Z,29.52
2023-04-15T13:30:08.295Z,30.53
2023-04-15T13:33:09.263Z,31.01
2023-04-15T13:36:10.231Z,30.35
2023-04-15T13:39:12.266Z,30.81
2023-04-15T13:42:13.229Z,30.71
2023-04-15T13:45:14.263Z,30.61
2023-04-15T13:48:15.281Z,30.76
2023-04-15T13:51:16.267Z,30.55
2023-04-15T13:54:17.246Z,30.73
2023-04-15T13:57:18.269Z,31.26
2023-04-15T14:00:19.240Z,30.81
2023-04-15T14:03:20.353Z,30.84
2023-04-15T14:06:21.246Z,30.89
2023-04-15T14:09:24.981Z,31.28
2023-04-15T14:12:27.226Z,31.62
2023-04-15T14:15:28.323Z,31.36
2023-04-15T14:18:29.269Z,32.00
2023-04-15T14:21:30.261Z,31.88
2023-04-15T14:24:35.231Z,31.91
2023-04-15T14:27:36.306Z,31.39
2023-04-15T14:30:37.317Z,31.38
2023-04-15T14:33:44.266Z,31.11
2023-04-15T14:36:45.203Z,31.58
2023-04-15T14:39:46.283Z,31.29
2023-04-15T14:42:47.211Z,30.91
2023-04-15T14:45:48.346Z,31.38
2023-04-15T14:48:49.235Z,31.37
2023-04-15T14:52:15.282Z,31.23
2023-04-15T14:55:17.223Z,31.48
2023-04-15T14:58:18.292Z,31.22
2023-04-15T15:01:19.260Z,32.23
2023-04-15T15:04:20.372Z,32.14
2023-04-15T15:07:21.207Z,31.81
2023-04-15T15:10:32.704Z,32.00
2023-04-15T15:13:43.216Z,31.73
2023-04-15T15:16:44.597Z,32.21
2023-04-15T15:19:45.241Z,32.02
2023-04-15T15:22:46.239Z,31.83
2023-04-15T15:25:47.245Z,31.76
2023-04-15T15:29:13.259Z,31.33
2023-04-15T15:32:14.217Z,31.59
2023-04-15T15:35:15.255Z,31.41
2023-04-15T15:38:16.231Z,31.54
2023-04-15T15:41:17.254Z,30.92
2023-04-15T15:44:18.274Z,31.65
2023-04-15T15:47:20.277Z,31.38
2023-04-15T15:50:21.222Z,31.40
2023-04-15T15:53:27.249Z,31.87
2023-04-15T15:56:28.248Z,31.54
2023-04-15T15:59:30.266Z,31.05
2023-04-15T16:02:56.309Z,31.56
2023-04-15T16:05:52.252Z,31.68
2023-04-15T16:08:53.226Z,31.31
2023-04-15T16:11:54.251Z,31.73
2023-04-15T16:14:55.225Z,31.59
2023-04-15T16:17:56.424Z,31.52
2023-04-15T16:20:57.219Z,31.74
2023-04-15T16:24:23.258Z,31.67
2023-04-15T16:27:24.212Z,31.25
2023-04-15T16:30:25.290Z,31.25
2023-04-15T16:33:26.207Z,31.66
2023-04-15T16:36:27.393Z,31.70
2023-04-15T16:39:30.192Z,30.77
2023-04-15T16:42:31.260Z,30.55
2023-04-15T16:45:32.219Z,30.18
2023-04-15T16:48:33.376Z,30.49
2023-04-15T16:51:34.224Z,29.85
2023-04-15T16:54:36.231Z,29.90
2023-04-15T16:58:01.037Z,30.16
2023-04-15T17:00:58.302Z,30.51
2023-04-15T17:04:00.354Z,30.39
2023-04-15T17:07:01.245Z,30.16
2023-04-15T17:10:05.202Z,30.98
2023-04-15T17:13:06.242Z,30.73
2023-04-15T17:16:07.272Z,30.42
2023-04-15T17:19:08.440Z,30.31
2023-04-15T17:22:18.243Z,30.18
2023-04-15T17:25:19.224Z,30.19
2023-04-15T17:28:21.224Z,30.10
2023-04-15T17:31:25.275Z,30.32
2023-04-15T17:34:49.657Z,30.62
2023-04-15T17:38:12.247Z,30.43
2023-04-15T17:41:33.233Z,30.16
2023-04-15T17:44:54.235Z,30.68
2023-04-15T17:48:15.245Z,30.83
2023-04-15T17:51:36.254Z,31.07
2023-04-15T17:54:57.205Z,30.46
2023-04-15T17:58:18.226Z,30.51
2023-04-15T18:01:39.304Z,29.89
2023-04-15T18:05:02.512Z,30.20
2023-04-15T18:08:23.210Z,29.60
2023-04-15T18:11:45.260Z,29.52
2023-04-15T18:15:06.214Z,30.77
2023-04-15T18:18:27.248Z,30.47
2023-04-15T18:21:21.339Z,30.70
2023-04-15T18:24:15.317Z,30.63
2023-04-15T18:27:16.226Z,31.79
2023-04-15T18:30:17.234Z,30.92
2023-04-15T18:33:18.194Z,30.90
2023-04-15T18:36:19.221Z,30.35
2023-04-15T18:39:20.199Z,30.94
2023-04-15T18:42:21.228Z,30.95
2023-04-15T18:45:22.197Z,30.64
2023-04-15T18:48:24.253Z,29.93
2023-04-15T18:51:25.174Z,30.29
2023-04-15T18:54:26.265Z,30.91
2023-04-15T18:57:28.792Z,31.01
2023-04-15T19:00:33.234Z,30.37
2023-04-15T19:03:34.259Z,30.24
2023-04-15T19:06:35.235Z,29.97
2023-04-15T19:09:36.186Z,31.18
2023-04-15T19:12:37.254Z,31.23
2023-04-15T19:15:38.208Z,31.42
2023-04-15T19:18:40.251Z,30.77
2023-04-15T19:21:41.196Z,30.82
2023-04-15T19:24:42.425Z,31.39
2023-04-15T19:27:45.187Z,31.25
2023-04-15T19:30:46.260Z,31.41
2023-04-15T19:33:48.262Z,31.11
2023-04-15T19:36:49.229Z,30.84
2023-04-15T19:39:50.204Z,31.13
2023-04-15T19:42:51.241Z,30.88
2023-04-15T19:45:53.245Z,31.45
2023-04-15T19:48:54.260Z,31.88
2023-04-15T19:51:55.199Z,31.71
2023-04-15T19:54:56.206Z,31.62
2023-04-15T19:58:03.800Z,31.52
2023-04-15T20:01:04.287Z,30.78
2023-04-15T20:04:06.619Z,31.10
2023-04-15T20:07:07.322Z,31.49
2023-04-15T20:10:12.461Z,31.19
2023-04-15T20:13:14.220Z,31.03
2023-04-15T20:16:15.213Z,31.12
2023-04-15T20:19:16.248Z,30.66
2023-04-15T20:22:17.173Z,30.62
2023-04-15T20:25:18.314Z,30.28
2023-04-15T20:28:19.171Z,29.88
2023-04-15T20:31:20.310Z,29.72
2023-04-15T20:34:21.192Z,29.80
2023-04-15T20:37:22.264Z,29.61
2023-04-15T20:40:23.189Z,29.26
2023-04-15T20:43:24.209Z,29.35
2023-04-15T20:46:27.356Z,29.00
2023-04-15T20:49:28.232Z,29.85
2023-04-15T20:52:29.172Z,30.23
2023-04-15T20:55:30.861Z,30.10
2023-04-15T20:58:33.171Z,29.39
2023-04-15T21:01:34.273Z,29.41
2023-04-15T21:04:35.175Z,29.18
2023-04-15T21:07:36.232Z,29.82
2023-04-15T21:10:41.172Z,29.85
2023-04-15T21:13:42.293Z,30.94
2023-04-15T21:16:43.319Z,30.63
2023-04-15T21:19:44.208Z,30.39
2023-04-15T21:22:45.227Z,29.86
2023-04-15T21:25:46.260Z,30.75
2023-04-15T21:28:47.185Z,30.15
2023-04-15T21:31:48.227Z,30.32
2023-04-15T21:34:49.182Z,30.36
2023-04-15T21:37:51.205Z,29.85
2023-04-15T21:40:52.183Z,30.41
2023-04-15T21:43:53.246Z,29.92
2023-04-15T21:46:54.255Z,31.47
2023-04-15T21:49:55.206Z,30.48
2023-04-15T21:52:56.174Z,30.29
2023-04-15T21:55:57.232Z,30.34
2023-04-15T21:58:58.185Z,30.33
2023-04-15T22:01:59.395Z,30.22
2023-04-15T22:05:00.180Z,30.19
2023-04-15T22:08:05.214Z,30.44
2023-04-15T22:11:06.123Z,30.69
2023-04-15T22:14:07.237Z,30.88
2023-04-15T22:17:08.143Z,30.36
2023-04-15T22:20:09.187Z,30.44
2023-04-15T22:23:14.197Z,30.96
2023-04-15T22:26:15.366Z,30.76
2023-04-15T22:29:16.185Z,30.89
2023-04-15T22:32:23.244Z,31.01
2023-04-15T22:35:24.381Z,30.81
2023-04-15T22:38:25.201Z,30.75
2023-04-15T22:41:26.150Z,31.22
2023-04-15T22:44:27.213Z,31.30
2023-04-15T22:47:28.160Z,31.45
2023-04-15T22:50:29.184Z,31.67
2023-04-15T22:53:30.155Z,31.63
2023-04-15T22:56:34.192Z,31.65
2023-04-15T22:59:35.161Z,31.66
2023-04-15T23:02:36.272Z,31.57
2023-04-15T23:05:37.177Z,31.54
2023-04-15T23:08:38.331Z,31.51
2023-04-15T23:11:39.188Z,31.54
2023-04-15T23:14:42.194Z,31.32
2023-04-15T23:17:43.180Z,31.63
2023-04-15T23:20:44.202Z,31.56
2023-04-15T23:23:45.132Z,31.60
2023-04-15T23:26:46.374Z,31.39
2023-04-15T23:29:47.441Z,31.48
2023-04-15T23:32:48.236Z,31.51
2023-04-15T23:35:50.150Z,31.31
2023-04-15T23:38:51.195Z,31.34
2023-04-15T23:41:52.150Z,31.34
2023-04-15T23:44:53.221Z,31.60
2023-04-15T23:47:54.197Z,31.26
2023-04-15T23:50:55.191Z,31.25
2023-04-15T23:53:56.187Z,31.28
2023-04-15T23:56:57.175Z,31.28
2023-04-15T23:59:59.161Z,31.27
